Time;durP1;ratioP1;P1;durP2;ratioP2;P2;SDS_P1;SDS_P2;PMS_P1;PMS_P2;Temp;Humidity;BMP_temperature;BMP_pressure;BME280_temperature;BME280_humidity;BME280_pressure;Samples;Min_cycle;Max_cycle;Signal;HPM_P1;HPM_P2
2021/07/27 00:01:45;;;;;;;2.10;1.93;;;20.20;99.90;;;;;;4823334;29;20754;-79
2021/07/27 00:04:11;;;;;;;2.00;1.90;;;20.20;99.90;;;;;;4847590;29;21293;-79
2021/07/27 00:06:36;;;;;;;2.40;1.90;;;20.20;99.90;;;;;;4834430;29;20443;-79
2021/07/27 00:09:02;;;;;;;2.20;2.03;;;20.20;99.90;;;;;;4824337;29;20417;-79
2021/07/27 00:11:28;;;;;;;2.10;2.00;;;20.20;99.90;;;;;;4824770;29;20485;-79
2021/07/27 00:13:53;;;;;;;2.27;2.07;;;20.10;99.90;;;;;;4823755;29;20413;-79
2021/07/27 00:16:19;;;;;;;2.20;2.10;;;20.10;99.90;;;;;;4838794;29;20421;-79
2021/07/27 00:18:44;;;;;;;1.75;1.65;;;20.00;99.90;;;;;;4825325;29;20408;-80
2021/07/27 00:21:10;;;;;;;1.70;1.60;;;20.10;99.90;;;;;;4832382;29;20483;-79
2021/07/27 00:23:37;;;;;;;2.20;2.00;;;20.10;99.90;;;;;;4838458;29;20443;-79
2021/07/27 00:26:05;;;;;;;1.70;1.60;;;20.10;99.90;;;;;;4846660;29;20417;-79
2021/07/27 00:28:30;;;;;;;2.10;1.90;;;20.10;99.90;;;;;;4826770;29;20424;-79
2021/07/27 00:30:56;;;;;;;2.30;2.10;;;20.10;99.90;;;;;;4823735;29;20410;-79
2021/07/27 00:33:22;;;;;;;2.10;2.00;;;20.10;99.90;;;;;;4852491;29;20410;-79
2021/07/27 00:35:47;;;;;;;2.03;1.93;;;20.00;99.90;;;;;;4809601;29;20973;-79
2021/07/27 00:38:18;;;;;;;2.50;2.30;;;20.00;99.90;;;;;;4854325;29;21002;-79
2021/07/27 00:40:44;;;;;;;4.50;2.40;;;20.00;99.90;;;;;;4838491;29;20413;-79
2021/07/27 00:43:11;;;;;;;2.70;2.10;;;20.00;99.90;;;;;;4815335;29;20495;-80
2021/07/27 00:45:36;;;;;;;2.40;2.20;;;19.90;99.90;;;;;;4838356;29;20811;-80
2021/07/27 00:48:02;;;;;;;2.10;2.00;;;20.00;99.90;;;;;;4834909;29;20945;-79
2021/07/27 00:50:28;;;;;;;2.30;2.10;;;20.00;99.90;;;;;;4835086;29;20508;-79
2021/07/27 00:52:56;;;;;;;1.40;1.37;;;20.00;99.90;;;;;;4839040;29;20404;-79
2021/07/27 00:55:22;;;;;;;2.10;2.00;;;20.00;99.90;;;;;;4821367;29;20466;-79
2021/07/27 00:57:47;;;;;;;2.00;1.90;;;20.00;99.90;;;;;;4823591;29;20406;-79
2021/07/27 01:00:13;;;;;;;2.00;1.90;;;20.00;99.90;;;;;;4836459;29;21428;-79
2021/07/27 01:02:39;;;;;;;2.20;2.00;;;20.00;99.90;;;;;;4833120;29;20479;-79
2021/07/27 01:05:05;;;;;;;2.40;2.20;;;20.00;99.90;;;;;;4836056;29;20400;-79
2021/07/27 01:07:30;;;;;;;1.80;1.70;;;20.00;99.90;;;;;;4830086;29;20415;-80
2021/07/27 01:09:56;;;;;;;1.80;1.70;;;19.90;99.90;;;;;;4835815;29;20408;-80
2021/07/27 01:12:22;;;;;;;2.30;2.10;;;19.90;99.90;;;;;;4836867;29;20436;-79
2021/07/27 01:14:47;;;;;;;2.20;1.98;;;19.90;99.90;;;;;;4818305;29;20939;-79
2021/07/27 01:17:13;;;;;;;5.87;2.17;;;19.90;99.90;;;;;;4824762;29;20418;-80
2021/07/27 01:19:56;;;;;;;2.37;2.17;;;19.90;99.90;;;;;;4853669;29;20486;-79
2021/07/27 01:43:45;;;;;;;2.43;2.23;;;19.80;99.90;;;;;;4822971;29;20434;-79
2021/07/27 01:46:15;;;;;;;2.15;2.05;;;19.70;99.90;;;;;;4836087;29;20414;-79
2021/07/27 01:48:41;;;;;;;2.10;2.00;;;19.70;99.90;;;;;;4849498;29;20946;-80
2021/07/27 01:51:06;;;;;;;1.60;1.50;;;19.70;99.90;;;;;;4837580;29;20478;-79
2021/07/27 01:53:36;;;;;;;2.27;2.13;;;19.70;99.90;;;;;;4838206;29;20413;-79
2021/07/27 01:56:02;;;;;;;2.90;2.27;;;19.70;99.90;;;;;;4837550;29;20498;-80
2021/07/27 01:58:27;;;;;;;2.83;1.88;;;19.60;99.90;;;;;;4853004;29;20410;-79
2021/07/27 02:00:53;;;;;;;2.17;2.07;;;19.60;99.90;;;;;;4820964;29;20426;-79
2021/07/27 02:03:19;;;;;;;2.00;1.90;;;19.60;99.90;;;;;;4835564;29;20447;-80
2021/07/27 02:05:45;;;;;;;2.20;2.10;;;19.60;99.90;;;;;;4820779;29;20407;-80
2021/07/27 02:08:11;;;;;;;2.40;2.20;;;19.50;99.90;;;;;;4837471;29;20405;-79
2021/07/27 02:10:38;;;;;;;2.50;2.10;;;19.60;99.90;;;;;;4818319;29;20418;-78
2021/07/27 02:13:14;;;;;;;2.38;2.17;;;19.50;99.90;;;;;;4834320;29;20487;-80
2021/07/27 02:15:43;;;;;;;2.22;2.03;;;19.50;99.90;;;;;;4830726;29;20424;-79
2021/07/27 02:18:09;;;;;;;2.23;2.03;;;19.50;99.90;;;;;;4853072;29;20441;-79
2021/07/27 02:20:35;;;;;;;2.00;1.90;;;19.50;99.90;;;;;;4852066;29;20505;-79
2021/07/27 02:23:04;;;;;;;2.20;2.00;;;19.50;99.90;;;;;;4834037;29;20507;-80
2021/07/27 02:25:30;;;;;;;2.10;2.00;;;19.50;99.90;;;;;;4841885;29;20970;-80
2021/07/27 02:27:57;;;;;;;2.40;2.20;;;19.50;99.90;;;;;;4834366;29;20412;-79
2021/07/27 02:30:26;;;;;;;2.67;2.47;;;19.40;99.90;;;;;;4836614;29;20496;-79
2021/07/27 02:32:52;;;;;;;2.22;2.13;;;19.40;99.90;;;;;;4803255;29;20406;-79
2021/07/27 02:35:32;;;;;;;2.17;2.07;;;19.40;99.90;;;;;;4838125;29;21269;-79
2021/07/27 02:37:57;;;;;;;2.47;2.28;;;19.50;99.90;;;;;;4836105;29;20958;-78
2021/07/27 02:40:23;;;;;;;2.30;2.10;;;19.40;99.90;;;;;;4834547;29;20466;-79
2021/07/27 02:42:48;;;;;;;2.65;2.45;;;19.50;99.90;;;;;;4836254;29;20418;-79
2021/07/27 02:45:14;;;;;;;2.28;2.13;;;19.50;99.90;;;;;;4835181;29;20477;-78
2021/07/27 02:47:40;;;;;;;2.80;2.20;;;19.40;99.90;;;;;;4820975;29;20406;-79
2021/07/27 02:50:07;;;;;;;2.25;2.05;;;19.40;99.90;;;;;;4822434;29;20425;-79
2021/07/27 02:52:33;;;;;;;2.00;1.90;;;19.40;99.90;;;;;;4822132;29;20414;-79
2021/07/27 02:54:58;;;;;;;2.50;2.30;;;19.40;99.90;;;;;;4836180;29;20543;-79
2021/07/27 02:57:24;;;;;;;2.30;2.10;;;19.40;99.90;;;;;;4836889;29;20402;-79
2021/07/27 02:59:50;;;;;;;2.28;2.08;;;19.40;99.90;;;;;;4824409;29;20409;-79
2021/07/27 03:02:24;;;;;;;2.53;2.33;;;19.40;99.90;;;;;;4824312;29;20402;-80
2021/07/27 03:04:50;;;;;;;2.30;2.10;;;19.40;99.90;;;;;;4808697;29;20829;-79
2021/07/27 03:07:19;;;;;;;1.88;1.77;;;19.40;99.90;;;;;;4829049;29;20471;-82
2021/07/27 03:10:17;;;;;;;2.00;1.80;;;19.30;99.90;;;;;;4840122;29;20403;-79
2021/07/27 03:12:31;;;;;;;2.47;2.28;;;19.40;99.90;;;;;;4842716;29;21101;-79
2021/07/27 03:14:59;;;;;;;2.30;2.13;;;19.30;99.90;;;;;;4840732;29;20410;-80
2021/07/27 03:17:25;;;;;;;2.45;2.25;;;19.30;99.90;;;;;;4824710;29;20406;-79
2021/07/27 03:19:51;;;;;;;2.47;2.28;;;19.30;99.90;;;;;;4824604;29;20470;-79
2021/07/27 03:22:20;;;;;;;2.40;2.20;;;19.30;99.90;;;;;;4837287;29;20847;-80
2021/07/27 03:24:46;;;;;;;2.80;2.30;;;19.30;99.90;;;;;;4827173;29;20478;-80
2021/07/27 03:27:11;;;;;;;2.40;2.23;;;19.30;99.90;;;;;;4840682;29;20418;-80
2021/07/27 03:29:37;;;;;;;2.50;2.30;;;19.30;99.90;;;;;;4820494;29;20426;-79
2021/07/27 03:32:03;;;;;;;2.20;2.00;;;19.30;99.90;;;;;;4820208;29;20413;-79
2021/07/27 03:34:28;;;;;;;2.25;2.05;;;19.20;99.90;;;;;;4840966;29;20438;-80
2021/07/27 03:36:54;;;;;;;2.28;2.08;;;19.20;99.90;;;;;;4841703;29;21045;-80
2021/07/27 03:39:20;;;;;;;2.67;2.47;;;19.20;99.90;;;;;;4825852;29;20914;-80
2021/07/27 03:41:45;;;;;;;2.38;2.17;;;19.20;99.90;;;;;;4824651;29;20789;-80
2021/07/27 03:44:14;;;;;;;2.50;2.30;;;19.20;99.90;;;;;;4820462;29;20454;-79
2021/07/27 03:46:45;;;;;;;2.47;2.27;;;19.10;99.90;;;;;;4838775;29;20422;-79
2021/07/27 03:49:11;;;;;;;2.60;2.40;;;19.20;99.90;;;;;;4855035;29;20492;-79
2021/07/27 03:51:37;;;;;;;2.63;2.38;;;19.10;99.90;;;;;;4840118;29;20523;-80
2021/07/27 03:54:03;;;;;;;2.60;2.40;;;19.20;99.90;;;;;;4838860;29;20503;-80
2021/07/27 03:56:28;;;;;;;2.37;2.17;;;19.20;99.90;;;;;;4826515;29;20547;-79
2021/07/27 03:58:55;;;;;;;2.50;2.27;;;19.10;99.90;;;;;;4839423;29;20422;-80
2021/07/27 04:01:20;;;;;;;2.80;2.57;;;19.10;99.90;;;;;;4822497;29;20432;-79
2021/07/27 04:03:46;;;;;;;2.38;2.22;;;19.10;99.90;;;;;;4807715;29;20434;-79
2021/07/27 04:06:15;;;;;;;2.30;2.10;;;19.10;99.90;;;;;;4822881;29;20431;-80
2021/07/27 04:08:40;;;;;;;2.17;2.08;;;19.10;99.90;;;;;;4843365;29;20490;-81
2021/07/27 04:11:07;;;;;;;2.27;2.10;;;19.00;99.90;;;;;;4842275;29;20918;-80
2021/07/27 04:13:33;;;;;;;2.45;2.25;;;19.00;99.90;;;;;;4837263;29;20927;-79
2021/07/27 04:16:00;;;;;;;2.50;2.30;;;19.00;99.90;;;;;;4836310;29;20418;-80
2021/07/27 04:18:26;;;;;;;3.35;2.60;;;19.00;99.90;;;;;;4846277;29;20500;-79
2021/07/27 04:20:54;;;;;;;2.67;2.23;;;19.00;99.90;;;;;;4824131;29;20917;-78
2021/07/27 04:23:20;;;;;;;2.47;2.22;;;19.00;99.90;;;;;;4832593;29;20489;-80
2021/07/27 04:25:46;;;;;;;3.13;2.22;;;19.00;99.90;;;;;;4838912;29;20452;-79
2021/07/27 04:28:11;;;;;;;2.23;2.13;;;19.00;99.90;;;;;;4842297;29;20481;-79
2021/07/27 04:30:37;;;;;;;2.22;1.92;;;19.10;99.90;;;;;;4838846;29;20442;-79
2021/07/27 04:33:03;;;;;;;2.70;2.50;;;19.10;99.90;;;;;;4821675;29;20933;-80
2021/07/27 04:35:28;;;;;;;4.23;3.57;;;19.20;99.90;;;;;;4807789;29;20408;-78
2021/07/27 04:37:56;;;;;;;6.85;4.82;;;19.20;99.90;;;;;;4835715;29;20773;-79
2021/07/27 04:40:22;;;;;;;2.53;2.33;;;19.30;99.90;;;;;;4797350;29;20411;-80
2021/07/27 04:42:48;;;;;;;4.23;2.37;;;19.30;99.90;;;;;;4823356;29;20833;-80
2021/07/27 04:45:13;;;;;;;5.53;2.80;;;19.40;99.90;;;;;;4835498;29;20420;-79
2021/07/27 04:47:39;;;;;;;2.60;2.40;;;19.40;99.90;;;;;;4814686;29;20429;-80
2021/07/27 04:50:06;;;;;;;2.50;2.30;;;19.50;99.90;;;;;;4811410;29;20437;-80
2021/07/27 04:52:32;;;;;;;2.50;2.30;;;19.50;99.90;;;;;;4842316;29;20414;-79
2021/07/27 04:54:57;;;;;;;2.40;2.20;;;19.60;99.90;;;;;;4854050;29;20405;-79
2021/07/27 04:57:23;;;;;;;2.55;2.35;;;19.70;99.90;;;;;;4834755;29;20852;-80
2021/07/27 04:59:49;;;;;;;4.43;2.60;;;19.80;99.90;;;;;;4827733;29;20410;-80
2021/07/27 05:02:14;;;;;;;3.15;2.85;;;19.90;99.90;;;;;;5056336;24;20503;-80
2021/07/27 05:04:46;;;;;;;4.60;2.70;;;19.90;99.90;;;;;;4820817;29;20959;-80
2021/07/27 05:07:12;;;;;;;2.35;2.15;;;19.90;99.90;;;;;;4816224;29;20491;-79
2021/07/27 05:09:38;;;;;;;2.90;2.33;;;20.00;99.90;;;;;;4806000;29;20703;-80
2021/07/27 05:12:04;;;;;;;2.43;2.00;;;20.10;99.90;;;;;;4811031;29;20441;-80
2021/07/27 05:14:30;;;;;;;2.22;2.13;;;20.20;99.90;;;;;;4814462;29;20783;-80
2021/07/27 05:16:56;;;;;;;3.77;2.50;;;20.30;99.90;;;;;;4816348;29;20434;-80
2021/07/27 05:19:24;;;;;;;2.28;2.08;;;20.30;99.90;;;;;;4816033;29;20416;-81
2021/07/27 05:21:52;;;;;;;2.17;1.98;;;20.40;99.90;;;;;;4806938;29;20512;-80
2021/07/27 05:24:19;;;;;;;2.20;2.10;;;20.50;99.90;;;;;;4810179;29;20500;-81
2021/07/27 05:26:45;;;;;;;2.35;2.17;;;20.80;99.90;;;;;;4803528;29;20531;-79
2021/07/27 05:29:11;;;;;;;2.13;1.92;;;20.70;99.90;;;;;;4817301;29;20418;-80
2021/07/27 05:31:38;;;;;;;2.50;2.30;;;20.80;99.90;;;;;;4816493;29;20467;-80
2021/07/27 05:34:07;;;;;;;2.50;2.17;;;20.90;99.90;;;;;;4802694;29;20418;-81
2021/07/27 05:37:30;;;;;;;2.40;2.20;;;20.90;99.90;;;;;;4809126;29;20600;-80
2021/07/27 05:41:17;;;;;;;2.90;2.25;;;21.00;99.90;;;;;;4784923;29;20423;-82
2021/07/27 05:44:43;;;;;;;2.45;2.10;;;21.10;99.90;;;;;;4820660;29;20515;-81
2021/07/27 05:48:52;;;;;;;2.17;2.05;;;21.40;99.90;;;;;;4826495;29;20441;-80
2021/07/27 05:51:59;;;;;;;2.25;2.05;;;21.50;99.90;;;;;;4802341;29;20493;-81
2021/07/27 05:56:12;;;;;;;2.00;1.90;;;21.70;99.90;;;;;;4812908;29;20497;-82
2021/07/27 06:00:20;;;;;;;2.00;1.90;;;21.80;99.90;;;;;;4825464;29;20424;-81
2021/07/27 06:08:49;;;;;;;1.95;1.85;;;22.30;99.90;;;;;;4829987;29;20433;-82
2021/07/27 06:12:07;;;;;;;2.28;2.08;;;22.40;99.90;;;;;;4833597;29;20434;-81
2021/07/27 06:15:55;;;;;;;2.10;1.90;;;22.50;99.90;;;;;;4835808;29;20462;-81
2021/07/27 06:23:43;;;;;;;4.20;1.95;;;22.90;99.90;;;;;;4805111;29;20450;-81
2021/07/27 06:27:44;;;;;;;2.03;1.92;;;23.10;99.90;;;;;;4815336;29;20507;-82
2021/07/27 06:31:16;;;;;;;1.75;1.65;;;23.20;99.90;;;;;;4804589;29;20439;-81
2021/07/27 06:35:30;;;;;;;2.05;1.85;;;23.40;99.90;;;;;;4799745;29;20428;-81
2021/07/27 06:43:30;;;;;;;2.58;2.00;;;23.70;99.90;;;;;;4758036;29;20435;-82
2021/07/27 06:51:18;;;;;;;2.08;1.90;;;24.20;99.90;;;;;;4781481;29;20536;-81
2021/07/27 06:55:28;;;;;;;1.80;1.70;;;24.50;99.90;;;;;;4811193;29;20928;-81
2021/07/27 07:03:22;;;;;;;4.78;1.83;;;24.50;99.90;;;;;;4779968;29;20430;-80
2021/07/27 07:07:16;;;;;;;1.80;1.70;;;24.80;99.90;;;;;;4778949;30;20460;-82
2021/07/27 07:11:28;;;;;;;1.88;1.77;;;25.00;99.90;;;;;;4775240;30;20427;-81
2021/07/27 07:19:35;;;;;;;1.80;1.70;;;25.30;99.90;;;;;;4790579;29;20433;-81
2021/07/27 07:27:07;;;;;;;2.83;1.52;;;25.50;99.90;;;;;;4793901;29;20434;-80
2021/07/27 07:30:35;;;;;;;2.10;2.00;;;25.80;99.90;;;;;;4808340;29;20425;-80
2021/07/27 07:37:45;;;;;;;1.73;1.63;;;25.90;99.90;;;;;;4782604;29;20428;-81
2021/07/27 07:41:54;;;;;;;1.73;1.63;;;26.20;99.90;;;;;;4798273;29;20417;-82
2021/07/27 07:45:29;;;;;;;1.75;1.65;;;26.40;99.90;;;;;;4831299;29;20449;-80
2021/07/27 07:56:41;;;;;;;1.63;1.52;;;26.80;99.90;;;;;;4772037;29;20441;-81
2021/07/27 08:00:39;;;;;;;1.90;1.80;;;27.10;99.90;;;;;;4813420;29;20420;-80
2021/07/27 08:03:32;;;;;;;1.63;1.52;;;27.30;99.90;;;;;;4781859;29;20427;-81
2021/07/27 08:07:47;;;;;;;1.50;1.40;;;27.40;99.90;;;;;;4729759;30;20422;-82
2021/07/27 08:11:26;;;;;;;1.60;1.50;;;27.60;99.90;;;;;;4702493;30;20423;-80
2021/07/27 08:18:02;;;;;;;1.88;1.67;;;28.10;99.90;;;;;;5157036;24;20423;-83
2021/07/27 08:21:44;;;;;;;1.90;1.80;;;28.10;99.90;;;;;;4811963;29;20424;-82
2021/07/27 08:25:18;;;;;;;1.90;1.80;;;28.10;99.90;;;;;;4853667;24;20435;-82
2021/07/27 08:34:16;;;;;;;1.63;1.52;;;28.50;99.90;;;;;;5681225;23;20423;-83
2021/07/27 08:36:51;;;;;;;1.92;1.60;;;28.60;99.90;;;;;;4856398;23;20501;-83
2021/07/27 12:07:31;;;;;;;1.50;1.40;;;35.00;68.80;;;;;;5630158;23;20428;-81
2021/07/27 12:34:19;;;;;;;1.25;1.23;;;34.50;72.00;;;;;;5172253;23;20433;-83
2021/07/27 12:39:54;;;;;;;1.30;1.20;;;33.70;69.60;;;;;;5103691;23;20428;-80
2021/07/27 12:42:57;;;;;;;1.37;1.27;;;33.20;71.20;;;;;;4839087;29;20432;-79
2021/07/27 12:46:07;;;;;;;1.23;1.13;;;33.00;72.40;;;;;;5002254;23;20485;-84
2021/07/27 13:03:33;;;;;;;1.05;1.05;;;33.10;76.40;;;;;;5639214;23;20822;-80
2021/07/27 13:10:33;;;;;;;1.40;1.30;;;33.30;79.80;;;;;;4887973;23;20414;-80
2021/07/27 13:17:19;;;;;;;1.42;1.30;;;33.30;77.30;;;;;;4875047;29;20410;-81
2021/07/27 13:20:30;;;;;;;1.60;1.30;;;33.20;73.20;;;;;;4824205;29;20422;-80
2021/07/27 13:26:45;;;;;;;1.30;1.20;;;33.50;75.30;;;;;;1162077;27;21604;-79
2021/07/27 13:30:46;;;;;;;1.33;1.30;;;34.10;80.30;;;;;;4826562;29;20443;-83
2021/07/27 13:42:15;;;;;;;1.70;1.40;;;34.20;75.50;;;;;;5735072;23;20426;-81
2021/07/27 13:45:16;;;;;;;1.50;1.40;;;33.80;72.20;;;;;;4826749;29;20441;-82
2021/07/27 13:48:22;;;;;;;1.23;1.13;;;33.60;74.80;;;;;;4833524;29;20424;-81
2021/07/27 13:52:41;;;;;;;1.47;1.37;;;33.20;72.60;;;;;;4838469;29;20419;-80
2021/07/27 14:06:12;;;;;;;1.58;1.30;;;34.00;76.70;;;;;;4792749;29;20416;-79
2021/07/27 14:09:56;;;;;;;1.30;1.17;;;34.70;80.30;;;;;;4818886;29;20554;-80
2021/07/27 14:30:43;;;;;;;1.60;1.50;;;34.80;75.10;;;;;;4773525;30;20457;-82
2021/07/27 14:35:13;;;;;;;1.67;1.58;;;35.30;72.90;;;;;;4699762;30;20440;-83
2021/07/27 14:39:01;;;;;;;1.60;1.50;;;34.60;74.30;;;;;;4717937;30;20545;-82
2021/07/27 14:43:33;;;;;;;1.70;1.60;;;35.30;74.00;;;;;;4794476;23;20463;-81
2021/07/27 14:46:17;;;;;;;1.52;1.42;;;34.70;74.30;;;;;;4800332;29;20440;-81
2021/07/27 14:56:16;;;;;;;1.50;1.40;;;33.50;72.00;;;;;;4775398;29;20437;-83
2021/07/27 15:04:03;;;;;;;1.55;1.45;;;32.70;75.80;;;;;;4785209;29;20535;-82
2021/07/27 15:08:43;;;;;;;1.40;1.30;;;32.70;77.40;;;;;;4799994;29;20470;-82
2021/07/27 15:19:40;;;;;;;1.50;1.40;;;32.50;78.10;;;;;;4858744;29;20443;-83
2021/07/27 15:35:26;;;;;;;2.03;1.83;;;31.50;79.60;;;;;;4786861;30;20421;-83
2021/07/27 16:20:57;;;;;;;1.70;1.60;;;29.60;80.80;;;;;;4885554;29;20470;-81
2021/07/27 16:44:17;;;;;;;1.65;1.55;;;29.40;85.50;;;;;;5044340;23;20412;-83
2021/07/27 16:52:37;;;;;;;6.30;3.83;;;29.40;83.40;;;;;;4851113;29;20425;-81
2021/07/27 16:55:43;;;;;;;3.28;2.50;;;29.20;85.60;;;;;;5527050;23;20425;-80
2021/07/27 17:50:57;;;;;;;1.25;1.23;;;28.20;89.60;;;;;;4835782;29;20444;-81
2021/07/27 17:54:47;;;;;;;1.25;1.25;;;28.20;90.50;;;;;;4863258;29;20401;-81
2021/07/27 17:58:01;;;;;;;1.52;1.42;;;28.10;90.30;;;;;;4828539;29;20447;-80
2021/07/27 18:01:13;;;;;;;1.60;1.27;;;28.00;90.00;;;;;;4803703;29;20471;-83
2021/07/27 18:04:08;;;;;;;1.30;1.30;;;27.80;90.60;;;;;;4824559;29;20981;-82
2021/07/27 18:07:33;;;;;;;1.58;1.48;;;27.60;90.70;;;;;;4828195;29;20435;-82
2021/07/27 18:10:52;;;;;;;1.50;1.40;;;27.50;90.00;;;;;;4787556;29;20430;-82
2021/07/27 18:14:21;;;;;;;1.70;1.60;;;27.30;91.00;;;;;;4815057;29;20417;-81
2021/07/27 18:18:15;;;;;;;1.50;1.40;;;27.10;90.80;;;;;;4825806;29;20805;-81
2021/07/27 18:22:13;;;;;;;1.73;1.63;;;26.90;91.60;;;;;;4837485;29;20460;-81
2021/07/27 18:24:51;;;;;;;2.13;1.67;;;26.70;91.80;;;;;;4801472;29;20465;-82
2021/07/27 18:27:33;;;;;;;1.67;1.58;;;26.60;92.00;;;;;;4822611;29;20427;-81
2021/07/27 18:30:17;;;;;;;1.40;1.30;;;26.50;92.00;;;;;;4833903;29;20484;-81
2021/07/27 18:33:27;;;;;;;7.78;1.98;;;26.40;92.60;;;;;;4789462;29;20914;-81
2021/07/27 18:36:24;;;;;;;8.07;2.05;;;26.40;93.20;;;;;;4826665;29;20434;-82
2021/07/27 18:39:15;;;;;;;2.27;2.03;;;26.10;94.20;;;;;;4851322;29;20429;-81
2021/07/27 18:42:26;;;;;;;5.20;1.77;;;26.00;94.80;;;;;;4777450;29;21011;-81
2021/07/27 18:46:02;;;;;;;6.77;2.17;;;25.90;95.80;;;;;;4824214;29;20502;-80
2021/07/27 18:48:59;;;;;;;3.28;1.88;;;25.70;96.30;;;;;;4772620;29;20872;-80
2021/07/27 18:51:25;;;;;;;1.87;1.77;;;25.70;96.60;;;;;;4813176;29;20425;-80
2021/07/27 18:54:08;;;;;;;2.40;1.80;;;25.60;97.00;;;;;;4815537;29;20804;-80
2021/07/27 18:56:42;;;;;;;4.25;2.08;;;25.50;97.10;;;;;;4838981;29;20403;-79
2021/07/27 18:59:28;;;;;;;1.80;1.48;;;25.20;97.20;;;;;;4831948;29;20509;-81
2021/07/27 19:02:11;;;;;;;2.35;1.80;;;25.20;97.80;;;;;;4802870;29;21027;-80
2021/07/27 19:04:53;;;;;;;1.90;1.60;;;25.10;97.70;;;;;;4809379;29;20858;-80
2021/07/27 19:07:36;;;;;;;3.10;1.67;;;25.00;98.60;;;;;;4796484;29;20910;-80
2021/07/27 19:10:31;;;;;;;4.18;1.40;;;24.80;98.90;;;;;;4781390;29;20479;-81
2021/07/27 19:13:21;;;;;;;1.65;1.55;;;24.70;99.70;;;;;;4802682;29;20419;-80
2021/07/27 19:16:26;;;;;;;3.10;1.90;;;24.50;99.90;;;;;;4782599;29;20808;-80
2021/07/27 19:19:08;;;;;;;2.17;1.88;;;24.60;99.90;;;;;;4777753;29;20988;-79
2021/07/27 19:21:41;;;;;;;1.85;1.75;;;24.40;99.90;;;;;;4813812;29;20414;-79
2021/07/27 19:24:12;;;;;;;1.70;1.60;;;24.30;99.90;;;;;;4807337;29;20433;-80
2021/07/27 19:26:48;;;;;;;1.73;1.63;;;24.10;99.90;;;;;;4816235;29;20447;-80
2021/07/27 19:29:39;;;;;;;1.85;1.65;;;24.00;99.90;;;;;;4789502;29;20563;-80
2021/07/27 19:32:24;;;;;;;6.95;1.83;;;23.90;99.90;;;;;;4793300;29;20511;-80
2021/07/27 19:35:05;;;;;;;1.60;1.50;;;23.80;99.90;;;;;;4796087;29;20426;-80
2021/07/27 19:37:36;;;;;;;2.35;1.90;;;23.70;99.90;;;;;;4826038;29;20414;-79
2021/07/27 19:40:22;;;;;;;1.80;1.70;;;23.70;99.90;;;;;;4795104;29;21049;-80
2021/07/27 19:43:33;;;;;;;2.55;1.52;;;23.70;99.90;;;;;;4818773;29;20425;-80
2021/07/27 19:49:46;;;;;;;2.72;1.90;;;23.40;99.90;;;;;;4770267;29;20945;-79
2021/07/27 19:52:28;;;;;;;3.45;1.90;;;23.30;99.90;;;;;;4794616;29;20788;-79
2021/07/27 19:55:06;;;;;;;1.95;1.73;;;23.40;99.90;;;;;;4822779;29;20904;-79
2021/07/27 19:57:41;;;;;;;2.88;1.98;;;23.10;99.90;;;;;;4806750;29;20874;-79
2021/07/27 20:00:08;;;;;;;1.98;1.77;;;23.00;99.90;;;;;;4832728;29;20416;-80
2021/07/27 20:02:38;;;;;;;3.15;1.80;;;22.90;99.90;;;;;;4833864;29;20408;-79
2021/07/27 20:05:05;;;;;;;2.78;1.60;;;22.70;99.90;;;;;;4817902;29;20492;-79
2021/07/27 20:07:31;;;;;;;2.25;1.60;;;22.80;99.90;;;;;;4805980;29;20419;-79
2021/07/27 20:09:57;;;;;;;3.28;1.55;;;22.80;99.90;;;;;;4817005;29;20429;-79
2021/07/27 20:12:24;;;;;;;3.85;1.60;;;22.80;99.90;;;;;;4806820;29;20414;-79
2021/07/27 20:14:50;;;;;;;2.10;1.70;;;22.80;99.90;;;;;;4804871;29;20438;-79
2021/07/27 20:17:17;;;;;;;7.00;2.00;;;22.70;99.90;;;;;;4810860;29;20865;-78
2021/07/27 20:19:43;;;;;;;3.00;1.70;;;22.60;99.90;;;;;;4786588;29;20788;-80
2021/07/27 20:22:09;;;;;;;2.00;1.70;;;22.60;99.90;;;;;;4813981;29;20443;-80
2021/07/27 20:24:35;;;;;;;1.85;1.75;;;22.60;99.90;;;;;;4806276;29;20435;-80
2021/07/27 20:27:01;;;;;;;2.78;2.03;;;22.50;99.90;;;;;;4817742;29;20419;-80
2021/07/27 20:29:27;;;;;;;2.00;1.90;;;22.30;99.90;;;;;;4798160;29;20437;-79
2021/07/27 20:31:54;;;;;;;4.82;1.92;;;22.40;99.90;;;;;;4833396;29;20448;-79
2021/07/27 20:34:20;;;;;;;3.58;1.65;;;22.20;99.90;;;;;;4808193;29;20795;-79
2021/07/27 20:36:46;;;;;;;2.78;2.40;;;22.30;99.90;;;;;;4808108;29;20458;-79
2021/07/27 20:39:13;;;;;;;1.90;1.80;;;22.10;99.90;;;;;;4788077;29;20429;-79
2021/07/27 20:41:39;;;;;;;2.00;1.90;;;22.20;99.90;;;;;;4805804;29;20422;-79
2021/07/27 20:44:05;;;;;;;1.50;1.40;;;22.10;99.90;;;;;;4836654;29;20515;-79
2021/07/27 20:46:34;;;;;;;2.00;1.90;;;22.20;99.90;;;;;;4795342;29;20565;-79
2021/07/27 20:49:01;;;;;;;1.80;1.70;;;22.00;99.90;;;;;;4806034;29;20427;-79
2021/07/27 20:51:28;;;;;;;1.80;1.70;;;21.90;99.90;;;;;;4791034;29;20420;-78
2021/07/27 20:53:58;;;;;;;1.80;1.70;;;21.90;99.90;;;;;;4808788;29;20527;-80
2021/07/27 20:56:25;;;;;;;2.50;1.88;;;21.70;99.90;;;;;;4814367;29;20434;-79
2021/07/27 20:58:52;;;;;;;2.17;1.98;;;21.80;99.90;;;;;;4816959;29;20428;-79
2021/07/27 21:01:20;;;;;;;2.03;1.92;;;21.70;99.90;;;;;;4826960;29;20420;-79
2021/07/27 21:03:49;;;;;;;1.83;1.73;;;21.40;99.90;;;;;;4819660;29;20436;-80
2021/07/27 21:06:15;;;;;;;4.40;1.65;;;21.60;99.90;;;;;;4776571;29;20428;-79
2021/07/27 21:08:44;;;;;;;1.88;1.77;;;21.50;99.90;;;;;;4816147;29;20492;-78
2021/07/27 21:11:12;;;;;;;8.77;2.13;;;21.50;99.90;;;;;;4809557;29;20416;-78
2021/07/27 21:13:38;;;;;;;2.63;1.80;;;21.30;99.90;;;;;;4808992;29;20423;-79
2021/07/27 21:16:05;;;;;;;1.70;1.60;;;21.30;99.90;;;;;;4792230;29;20422;-79
2021/07/27 21:18:31;;;;;;;1.95;1.80;;;21.30;99.90;;;;;;4802660;29;20894;-79
2021/07/27 21:20:58;;;;;;;3.45;1.98;;;21.00;99.90;;;;;;4820486;29;20444;-78
2021/07/27 21:23:24;;;;;;;2.30;2.10;;;21.00;99.90;;;;;;4804495;29;20455;-79
2021/07/27 21:25:57;;;;;;;2.30;2.10;;;21.10;99.90;;;;;;4796064;29;20428;-79
2021/07/27 21:28:23;;;;;;;5.15;2.35;;;21.10;99.90;;;;;;4793888;29;20420;-79
2021/07/27 21:30:50;;;;;;;2.67;2.28;;;21.00;99.90;;;;;;4786778;29;20417;-79
2021/07/27 21:33:17;;;;;;;4.15;1.80;;;20.90;99.90;;;;;;4803112;29;20429;-79
2021/07/27 21:35:43;;;;;;;2.55;1.92;;;21.00;99.90;;;;;;4820789;29;20411;-78
2021/07/27 21:38:10;;;;;;;1.70;1.60;;;20.90;99.90;;;;;;4802565;29;20440;-79
2021/07/27 21:40:36;;;;;;;2.37;1.73;;;20.80;99.90;;;;;;4803020;29;20505;-80
2021/07/27 21:43:02;;;;;;;2.00;1.80;;;21.00;99.90;;;;;;4800669;29;20917;-79
2021/07/27 21:45:29;;;;;;;1.80;1.70;;;20.80;99.90;;;;;;4800969;29;20445;-79
2021/07/27 21:47:56;;;;;;;1.90;1.80;;;20.80;99.90;;;;;;4806412;29;20435;-79
2021/07/27 21:50:22;;;;;;;2.53;2.17;;;20.60;99.90;;;;;;4797781;29;20917;-79
2021/07/27 21:52:49;;;;;;;1.85;1.70;;;20.60;99.90;;;;;;4821787;29;20416;-78
2021/07/27 21:55:15;;;;;;;2.65;1.77;;;20.60;99.90;;;;;;4809223;29;20417;-78
2021/07/27 21:57:41;;;;;;;3.35;2.08;;;20.60;99.90;;;;;;4806405;29;20545;-78
2021/07/27 22:00:08;;;;;;;1.80;1.70;;;20.50;99.90;;;;;;4820250;29;20448;-78
2021/07/27 22:02:42;;;;;;;1.80;1.70;;;20.50;99.90;;;;;;4831572;29;20434;-79
2021/07/27 22:05:08;;;;;;;2.13;1.65;;;20.30;99.90;;;;;;4820602;29;20432;-79
2021/07/27 22:07:34;;;;;;;2.40;2.20;;;20.40;99.90;;;;;;4802361;29;20421;-79
2021/07/27 22:10:00;;;;;;;2.90;1.98;;;20.50;99.90;;;;;;4799308;29;20427;-79
2021/07/27 22:12:26;;;;;;;2.40;2.20;;;20.40;99.90;;;;;;4793518;29;20419;-79
2021/07/27 22:14:53;;;;;;;6.93;2.47;;;20.30;99.90;;;;;;4794535;29;20445;-79
2021/07/27 22:17:19;;;;;;;2.55;2.00;;;20.20;99.90;;;;;;4797529;29;20916;-79
2021/07/27 22:19:45;;;;;;;1.90;1.80;;;20.20;99.90;;;;;;4821784;29;20552;-78
2021/07/27 22:22:11;;;;;;;1.90;1.80;;;20.10;99.90;;;;;;4805513;29;20432;-79
2021/07/27 22:24:37;;;;;;;2.00;1.90;;;20.10;99.90;;;;;;4802882;29;20440;-79
2021/07/27 22:27:04;;;;;;;1.90;1.80;;;20.10;99.90;;;;;;4799540;29;20434;-79
2021/07/27 22:29:30;;;;;;;2.37;1.57;;;20.10;99.90;;;;;;4814285;29;20495;-79
2021/07/27 22:31:56;;;;;;;2.10;1.90;;;20.00;99.90;;;;;;4820029;29;20424;-79
2021/07/27 22:34:22;;;;;;;2.10;1.90;;;20.00;99.90;;;;;;4810108;29;20512;-78
2021/07/27 22:36:49;;;;;;;4.47;2.10;;;20.00;99.90;;;;;;4808554;29;20410;-78
2021/07/27 22:39:15;;;;;;;2.05;1.85;;;19.80;99.90;;;;;;4788946;29;20413;-80
2021/07/27 22:41:41;;;;;;;1.90;1.75;;;20.10;99.90;;;;;;4828658;29;20424;-79
2021/07/27 22:44:07;;;;;;;2.37;2.17;;;19.80;99.90;;;;;;4816515;29;20515;-78
2021/07/27 22:46:33;;;;;;;5.47;2.30;;;19.80;99.90;;;;;;4799700;29;20414;-78
2021/07/27 22:49:00;;;;;;;2.15;1.95;;;19.70;99.90;;;;;;4788255;29;20984;-78
2021/07/27 22:51:26;;;;;;;2.35;1.98;;;19.80;99.90;;;;;;4801682;29;20427;-78
2021/07/27 22:53:53;;;;;;;3.55;2.30;;;19.80;99.90;;;;;;4816337;29;20496;-78
2021/07/27 22:56:20;;;;;;;2.00;1.90;;;19.60;99.90;;;;;;4788664;29;20413;-78
2021/07/27 22:58:46;;;;;;;3.60;2.30;;;19.60;99.90;;;;;;4808483;29;20426;-78
2021/07/27 23:01:12;;;;;;;2.17;2.08;;;19.50;99.90;;;;;;4822000;29;20887;-79